Aérodrome :
LOGIN :

S'inscrire | Disclaimer

   EN    FR    IT 

 










Légende :    VFR   VFR Marginal   IFR   IFR Intensif   IFR Très Intensif
Visi : 
Plafond : 
>= 8 km
>= 3000ft
5 à 8 km
1000 à 3000 ft
1500m à 5 km
500 à 1000 ft
800 à 1500m
200 à 500 ft
< 800m
< 200 ft
Symboles :   Orages  Brouillard  Fortes neiges  Fortes précipitations  Vent > 20 kt
SIGMETs :   Divers  Orages  Givrage  Turbulence  Onde Orograph.  Cendres Volcan.







- Altitude de l'aérodrome : 84 ft
- Voir les cartes d'approche


LFBC - Cazaux

DERNIER METAR :
  • 181930Z AUTO 22005KT 170V290 9999 ///TCU 10/08 Q1015 BECMG 24020G30KT 4000 RA BKN010 BKN030

METARs EXPIRÉS :
  • 181900Z AUTO VRB03KT 9999 ///TCU 09/07 Q1015 BECMG 24020G30KT 4000 RA BKN010 BKN030
  • 181830Z AUTO 17004KT 9999 -RA NSC 09/07 Q1014 BECMG 24020G30KT 4000 RA BKN010 BKN030
  • 181800Z AUTO VRB03KT 9999 -RA ///TCU 09/07 Q1014 BECMG 24020G30KT 4000 RA BKN010 BKN030
  • 181730Z AUTO 15004KT 9999 ///TCU 09/07 Q1013 BECMG 24020G30KT 4000 RA BKN010 BKN030
  • 181700Z AUTO 16006KT 9999 -RA ///TCU 10/07 Q1013 BECMG 24020G30KT 4000 RA BKN010 BKN030

TAF TAF LFBC
Valide du 18 à 15h jusqu'au 19 à 15h UTC


181400Z 1815/1915 16010KT CAVOK
BECMG 1817/1819 24020G30KT 4000 RA BKN010 BKN030
BECMG 1823/1824 18007KT 9999 NSW SCT030 SCT050
PROB40 1910/1912 4000 SHRA FEW025CB SCT030TCU
TEMPO 1912/1915 27020G30KT 4000 SHRA SCT025CB BKN030TCU
Pas de NOTAMs connus pour ce terrain.
2 SIGMETs publiés pour la FIR Bordeaux (LFBB) :
 
Turbulence forte
LFBB SIGMET 9 VALID 181900/182200 LFPW
LFBB BORDEAUX FIR/UIR SEV TURB FCST WI N4230 E00030 - N4300 W00145 - N4330 W00145 - N4300 E00045 - N4230 E00030 SFC/FL080 STNR WKN=
Turbulence forte
LFBB SIGMET 7 VALID 181600/182000 LFPW
LFBB BORDEAUX FIR/UIR SEV TURB FCST WI N4500 E00245 - N4300 E00230 - N4330 E00115 - N4345 E00130 - N4345 E00200 - N4500 E00245 SFC/FL060 STNR WKN=



MET'MAP, la Météo Aéronautique d'un coup d'oeil ! - Copyright ORBIFLY Décembre 2007 - Disclaimer

ORBIFLY MET'MAP TEAM :

Programmation & Développement : Alexandra Zaïnal
Conception & Développement : Baudouin d'Aumeries
Co-Programmation & Développement : Marc-Olivier Méhu
Soutien technique & logistique : Manuel Goepfert

Contact : metmap@orbifly.com




SOURCES & CREDITS :

   NOAA